Pagina principale
METAR-TAF:

METAR-TAF

Aeroporti :

Banská Bystrica, Slovacchia

latitudine: 48-38-17N, longitudine: 019-08-03E, altezza: 318 m

METAR: mancante

Ora: 20:56 (18:56 UTC)

Previsione

Il bollettino è stato emesso 2 ore e 26 minuti fa, alle 16:30 UTC
Previsione valida dal 19 alle 18 UTC al 20 alle 06 UTC
Vento 3 kt da direzioni variabili
Visibilità 10 km o più
Poco nuvoloso ad un'altezza di 5000 ft
Temporaneamente
dal 19 alle 18 UTC al 19 alle 21 UTC
Vento 6 kt da sud/sud-est
Evoluzione graduale
dal 19 alle 19 UTC al 19 alle 21 UTC
Nubi sparse ad un'altezza di 5000 ft

TAF: LZSL 191630Z 1918/2006 VRB03KT 9999 FEW050 TEMPO 1918/1921 15006KT BECMG 1919/1921 SCT050

Osservazioni e previsioni meteorologiche di più di 4000 aeroporti (messaggi METAR e TAF).

Le stazioni disponibili sono rappresentate dai dischi gialli e rossi sulla carta.

Puntare il mouse per vedere il nome della stazione.

Clicca sopra per visualizzare le osservazioni e previsioni meteorologiche.

Per cambiare la mappa : fare clic sui pulsanti verdi con una croce nera per ingrandire, il pulsante verde con un trattino per diminuire, o sulla freccia verde per le mappe adiacenti.


METAR-TAF: